Henrietta, Texas
Current Conditions -  °F | °C
As of 5:52 AM on Monday 26 Jan 2015 (Local Time) from KSPS Reporting Station
Clear Clear  
Wind Chill: 34°   Ceiling: Unl
Heat Index: 34°   Visibility: 10mi
Dew Point: 28°   Wind: 3mph
Humidity: 79%   Direction: 250°WSW
Pressure: 30.17"   Gusts: NA
Location:  33.82°N, 98.2°W
Report Text: KSPS 261152Z 25003KT 10SM CLR 01/M02 A3017 RMK AO2 SLP218 T00111022 10056 20011 56012
Loading
Personal Weather Stations






























Interactive Weather Map New forecast layout! Learn more

10-Day Weather Forecast

Advertisements
Track Severe Weather on mobile